createdAt,value
2019-01-15T02:29:29.205Z,3.47
2019-01-15T02:32:18.339Z,2.67
2019-01-15T02:35:07.623Z,3.08
2019-01-15T02:37:56.083Z,2.95
2019-01-15T02:40:45.167Z,2.77
2019-01-15T02:43:34.271Z,2.90
2019-01-15T02:46:23.133Z,3.62
2019-01-15T02:49:11.983Z,3.00
2019-01-15T02:52:00.972Z,2.80
2019-01-15T02:54:49.875Z,3.12
2019-01-15T02:57:38.468Z,2.58
2019-01-15T03:00:27.644Z,2.62
2019-01-15T03:03:15.990Z,2.85
2019-01-15T03:06:04.976Z,2.95
2019-01-15T03:08:53.548Z,2.70
2019-01-15T03:50:57.743Z,2.65
2019-01-15T03:53:46.787Z,2.85
2019-01-15T04:02:13.095Z,2.75
2019-01-15T04:05:02.446Z,2.25
2019-01-15T04:07:52.440Z,2.30
2019-01-15T04:10:41.435Z,2.00
2019-01-15T04:13:29.730Z,2.77
2019-01-15T04:16:18.664Z,2.30
2019-01-15T04:19:07.838Z,1.82
2019-01-15T04:21:56.625Z,2.50
2019-01-15T04:24:45.536Z,2.30
2019-01-15T04:27:34.261Z,2.20
2019-01-15T04:30:23.489Z,2.45
2019-01-15T04:33:12.379Z,2.20
2019-01-15T04:36:01.244Z,2.40
2019-01-15T04:38:50.225Z,1.98
2019-01-15T04:41:39.261Z,2.42
2019-01-15T04:44:28.093Z,2.08
2019-01-15T04:47:17.271Z,2.10
2019-01-15T04:50:09.481Z,2.33
2019-01-15T04:53:00.315Z,2.22
2019-01-15T04:55:49.424Z,1.90
2019-01-15T05:09:50.132Z,2.30
2019-01-15T05:12:39.223Z,2.20
2019-01-15T05:15:27.551Z,2.20
2019-01-15T05:18:16.142Z,2.50
2019-01-15T05:21:05.088Z,2.10
2019-01-15T05:23:54.200Z,2.90
2019-01-15T05:26:42.596Z,2.00
2019-01-15T05:29:31.665Z,2.05
2019-01-15T05:32:20.681Z,2.45
2019-01-15T05:35:09.810Z,2.30
2019-01-15T05:37:58.927Z,1.92
2019-01-15T05:40:47.686Z,1.90
2019-01-15T05:43:36.115Z,2.02
2019-01-15T05:46:25.239Z,2.62
2019-01-15T05:49:14.660Z,1.90
2019-01-15T05:52:03.781Z,1.95
2019-01-15T05:54:52.040Z,1.95
2019-01-15T05:57:41.027Z,1.70
2019-01-15T06:00:30.014Z,1.82
2019-01-15T06:03:18.966Z,2.20
2019-01-15T06:06:07.969Z,2.72
2019-01-15T06:08:56.533Z,2.35
2019-01-15T06:11:45.552Z,2.00
2019-01-15T06:14:33.913Z,1.77
2019-01-15T06:17:23.061Z,2.20
2019-01-15T06:20:18.252Z,2.05
2019-01-15T06:23:06.574Z,2.17
2019-01-15T06:25:56.854Z,1.90
2019-01-15T06:28:46.176Z,2.60
2019-01-15T06:31:35.114Z,2.77
2019-01-15T06:34:24.023Z,2.75
2019-01-15T06:37:12.909Z,3.22
2019-01-15T06:40:02.050Z,2.30
2019-01-15T06:42:50.944Z,2.45
2019-01-15T06:45:39.822Z,2.85
2019-01-15T06:48:29.054Z,3.12
2019-01-15T06:51:17.917Z,2.45
2019-01-15T06:54:06.940Z,3.15
2019-01-15T06:56:55.767Z,4.00
2019-01-15T06:59:44.471Z,3.30
2019-01-15T07:02:33.185Z,3.30
2019-01-15T07:05:22.175Z,4.55
2019-01-15T07:08:11.242Z,3.65
2019-01-15T07:10:59.888Z,4.22
2019-01-15T07:13:49.120Z,4.10
2019-01-15T07:16:38.102Z,3.65
2019-01-15T07:19:26.928Z,3.35
2019-01-15T07:22:16.090Z,3.12
2019-01-15T07:25:08.827Z,3.70
2019-01-15T07:27:57.971Z,4.30
2019-01-15T07:30:49.525Z,4.47
2019-01-15T07:33:38.755Z,5.03
2019-01-15T07:36:28.141Z,4.25
2019-01-15T07:39:16.831Z,4.37
2019-01-15T07:42:05.755Z,4.50
2019-01-15T07:44:54.488Z,4.08
2019-01-15T07:47:43.029Z,4.62
2019-01-15T07:50:31.930Z,3.80
2019-01-15T07:53:20.843Z,4.33
2019-01-15T07:56:10.020Z,4.62
2019-01-15T07:58:58.362Z,3.95
2019-01-15T08:01:47.537Z,4.83
2019-01-15T08:04:36.560Z,5.12
2019-01-15T08:07:25.200Z,5.17
2019-01-15T08:10:16.967Z,4.22
2019-01-15T08:13:06.248Z,5.40
2019-01-15T08:15:56.439Z,5.08
2019-01-15T08:18:45.516Z,3.95
2019-01-15T08:21:34.754Z,4.15
2019-01-15T08:24:23.915Z,4.37
2019-01-15T08:27:12.950Z,4.55
2019-01-15T08:30:01.918Z,4.67
2019-01-15T08:32:50.988Z,4.92
2019-01-15T08:35:39.446Z,5.17
2019-01-15T08:38:28.413Z,6.72
2019-01-15T08:41:16.811Z,4.45
2019-01-15T08:44:05.421Z,5.60
2019-01-15T08:46:54.616Z,5.10
2019-01-15T08:49:43.493Z,4.62
2019-01-15T08:52:32.158Z,4.72
2019-01-15T08:55:20.807Z,6.00
2019-01-15T08:58:09.390Z,6.60
2019-01-15T09:00:58.096Z,6.30
2019-01-15T09:03:46.723Z,7.78
2019-01-15T09:06:36.022Z,5.85
2019-01-15T09:09:25.184Z,6.20
2019-01-15T09:12:14.250Z,5.70
2019-01-15T09:15:02.467Z,7.15
2019-01-15T09:17:51.552Z,6.05
2019-01-15T09:20:40.306Z,6.42
2019-01-15T09:23:28.988Z,6.35
2019-01-15T09:26:17.665Z,7.62
2019-01-15T09:29:06.389Z,6.80
2019-01-15T09:31:55.245Z,7.58
2019-01-15T09:34:44.515Z,6.67
2019-01-15T09:37:34.169Z,6.72
2019-01-15T09:40:24.323Z,7.28
2019-01-15T09:43:12.652Z,6.83
2019-01-15T09:46:00.995Z,8.08
2019-01-15T09:48:50.036Z,7.80
2019-01-15T09:51:39.114Z,7.75
2019-01-15T09:54:27.993Z,8.28
2019-01-15T09:57:16.364Z,8.85
2019-01-15T10:00:12.582Z,9.25
2019-01-15T10:03:01.536Z,10.30
2019-01-15T10:05:49.820Z,8.75
2019-01-15T10:08:38.771Z,8.63
2019-01-15T10:11:27.678Z,10.75
2019-01-15T10:14:16.584Z,9.05
2019-01-15T10:17:05.483Z,8.78
2019-01-15T10:19:54.461Z,9.05
2019-01-15T10:22:43.330Z,10.20
2019-01-15T10:25:32.362Z,10.28
2019-01-15T10:28:21.166Z,10.40
2019-01-15T10:31:29.401Z,10.23
2019-01-15T10:34:19.808Z,10.93
2019-01-15T10:37:06.682Z,10.55
2019-01-15T10:39:55.855Z,10.08
2019-01-15T10:42:44.683Z,9.90
2019-01-15T10:45:33.742Z,9.63
2019-01-15T10:48:23.003Z,9.90
2019-01-15T10:51:12.188Z,10.95
2019-01-15T10:54:00.956Z,10.35
2019-01-15T10:56:49.340Z,10.10
2019-01-15T10:59:38.088Z,10.13
2019-01-15T11:02:26.917Z,10.53
2019-01-15T11:05:15.987Z,10.25
2019-01-15T11:08:04.577Z,11.20
2019-01-15T11:10:53.585Z,11.20
2019-01-15T11:13:42.019Z,9.75
2019-01-15T11:16:31.067Z,9.43
2019-01-15T11:19:19.786Z,11.12
2019-01-15T11:22:08.851Z,9.58
2019-01-15T11:24:57.552Z,10.88
2019-01-15T11:27:46.679Z,10.30
2019-01-15T11:30:35.583Z,10.58
2019-01-15T11:33:24.175Z,10.20
2019-01-15T11:36:13.165Z,9.45
2019-01-15T11:39:02.224Z,10.08
2019-01-15T11:41:51.240Z,9.85
2019-01-15T11:44:40.036Z,10.03
2019-01-15T11:47:29.155Z,9.28
2019-01-15T11:50:23.905Z,9.25
2019-01-15T11:53:12.714Z,8.55
2019-01-15T11:56:01.502Z,8.50
2019-01-15T11:58:51.510Z,9.13
2019-01-15T12:01:41.691Z,8.28
2019-01-15T12:04:47.871Z,7.97
2019-01-15T12:07:38.338Z,8.35
2019-01-15T12:10:44.597Z,8.15
2019-01-15T12:13:38.895Z,8.45
2019-01-15T12:16:42.726Z,8.30
2019-01-15T12:19:36.430Z,8.45
2019-01-15T12:22:35.536Z,7.17
2019-01-15T12:25:26.297Z,7.28
2019-01-15T12:28:25.170Z,7.33
2019-01-15T12:31:21.899Z,7.90
2019-01-15T12:34:18.569Z,6.15
2019-01-15T12:37:25.141Z,6.53
2019-01-15T12:40:18.928Z,7.25
2019-01-15T12:43:12.062Z,7.10
2019-01-15T12:46:14.099Z,5.75
2019-01-15T12:49:07.285Z,6.25
2019-01-15T12:52:10.282Z,6.40
2019-01-15T12:55:02.964Z,6.20
2019-01-15T12:58:05.478Z,5.80
2019-01-15T13:01:11.943Z,6.55
2019-01-15T13:04:04.849Z,6.25
2019-01-15T13:07:03.119Z,6.40
2019-01-15T13:09:59.534Z,5.70
2019-01-15T13:12:49.693Z,6.10
2019-01-15T13:15:52.295Z,6.53
2019-01-15T13:18:42.463Z,6.33
2019-01-15T13:21:36.181Z,6.25
2019-01-15T13:24:32.359Z,5.70
2019-01-15T13:27:28.624Z,6.20
2019-01-15T13:30:19.313Z,5.87
2019-01-15T13:33:10.630Z,6.03
2019-01-15T13:36:07.730Z,6.10
2019-01-15T13:39:06.883Z,5.45
2019-01-15T13:42:05.887Z,5.50
2019-01-15T13:44:56.166Z,5.80
2019-01-15T13:47:55.636Z,5.33
2019-01-15T13:50:45.620Z,5.42
2019-01-15T13:53:36.118Z,5.65
2019-01-15T13:56:29.434Z,5.53
2019-01-15T13:59:25.272Z,5.80
2019-01-15T14:02:30.489Z,5.65
2019-01-15T14:05:23.443Z,5.58
2019-01-15T14:08:19.496Z,6.05
2019-01-15T14:11:12.554Z,5.95
2019-01-15T14:14:14.878Z,5.00
2019-01-15T14:17:10.959Z,5.55
2019-01-15T14:20:01.306Z,6.67
2019-01-15T14:23:06.649Z,5.25
2019-01-15T14:26:00.127Z,5.90
2019-01-15T14:28:56.120Z,4.80
2019-01-15T14:31:51.947Z,5.72
2019-01-15T14:34:43.711Z,4.62
2019-01-15T14:37:37.505Z,5.45
2019-01-15T14:40:43.557Z,5.20
2019-01-15T14:43:33.738Z,5.22
2019-01-15T14:46:35.511Z,6.08
2019-01-15T14:49:31.742Z,6.40
2019-01-15T14:52:30.034Z,5.25
2019-01-15T14:55:20.851Z,5.50
2019-01-15T14:58:13.496Z,6.25
2019-01-15T15:01:20.083Z,6.70
2019-01-15T15:04:10.619Z,6.30
2019-01-15T15:07:16.733Z,6.97
2019-01-15T15:10:20.359Z,7.25
2019-01-15T15:13:25.708Z,5.90
2019-01-15T15:16:16.206Z,7.00
2019-01-15T15:19:09.702Z,7.70
2019-01-15T15:22:16.087Z,7.70
2019-01-15T15:25:09.899Z,6.03
2019-01-15T15:28:05.982Z,6.60
2019-01-15T15:31:02.047Z,5.72
2019-01-15T15:34:08.209Z,6.10
2019-01-15T15:37:10.617Z,6.22
2019-01-15T15:40:15.739Z,6.05
2019-01-15T15:43:09.062Z,4.72
2019-01-15T15:46:11.480Z,5.70
2019-01-15T15:49:01.698Z,4.67
2019-01-15T15:52:06.937Z,6.08
2019-01-15T15:54:58.413Z,3.87
2019-01-15T15:58:04.973Z,5.08
2019-01-15T16:00:55.560Z,5.70
2019-01-15T16:03:52.020Z,6.55
2019-01-15T16:06:48.545Z,6.20
2019-01-15T16:09:44.555Z,5.80
2019-01-15T16:12:40.454Z,8.13
2019-01-15T16:15:30.622Z,6.25
2019-01-15T16:18:26.976Z,6.28
2019-01-15T16:21:17.213Z,6.28
2019-01-15T16:24:10.736Z,5.20
2019-01-15T16:27:16.974Z,4.20
2019-01-15T16:30:29.650Z,4.60
2019-01-15T16:33:22.421Z,7.22
2019-01-15T16:36:14.679Z,5.28
2019-01-15T16:39:09.652Z,4.60
2019-01-15T16:42:08.237Z,5.78
2019-01-15T16:45:07.893Z,4.62
2019-01-15T16:47:58.668Z,5.80
2019-01-15T16:50:51.542Z,5.80
2019-01-15T16:53:42.293Z,7.37
2019-01-15T16:56:34.865Z,6.17
2019-01-15T16:59:34.215Z,6.87
2019-01-15T17:02:33.622Z,8.15
2019-01-15T17:05:26.868Z,11.73
2019-01-15T17:08:17.431Z,8.35
2019-01-15T17:11:08.054Z,6.72
2019-01-15T17:13:58.113Z,8.85
2019-01-15T17:16:48.921Z,9.78
2019-01-15T17:19:45.325Z,10.15
2019-01-15T17:22:51.918Z,8.90
2019-01-15T17:25:41.976Z,9.40
2019-01-15T17:28:44.197Z,9.98
2019-01-15T17:31:43.875Z,10.98
2019-01-15T17:34:36.901Z,8.65
2019-01-15T17:37:32.527Z,7.20
2019-01-15T17:40:22.609Z,9.58
2019-01-15T17:43:19.106Z,7.35
2019-01-15T17:46:09.520Z,9.40
2019-01-15T17:49:00.130Z,7.47
2019-01-15T17:51:59.066Z,9.08
2019-01-15T17:54:57.981Z,7.25
2019-01-15T17:57:54.681Z,9.55
2019-01-15T18:01:00.530Z,11.12
2019-01-15T18:04:07.025Z,7.72
2019-01-15T18:06:57.694Z,10.08
2019-01-15T18:09:54.198Z,7.80
2019-01-15T18:12:53.722Z,9.70
2019-01-15T18:15:44.319Z,8.25
2019-01-15T18:18:41.091Z,8.13
2019-01-15T18:21:33.933Z,9.05
2019-01-15T18:24:24.802Z,9.80
2019-01-15T18:27:15.309Z,10.18
2019-01-15T18:30:16.875Z,9.20
2019-01-15T18:33:25.418Z,9.45
2019-01-15T18:36:24.131Z,9.05
2019-01-15T18:39:30.718Z,10.65
2019-01-15T18:42:24.406Z,9.65
2019-01-15T18:45:20.935Z,9.00
2019-01-15T18:48:21.541Z,8.35
2019-01-15T18:51:27.949Z,10.03
2019-01-15T18:54:33.866Z,10.15
2019-01-15T18:57:23.791Z,10.43
2019-01-15T19:00:26.992Z,10.32
2019-01-15T19:03:32.877Z,7.92
2019-01-15T19:06:22.908Z,10.00
2019-01-15T19:09:26.115Z,9.35
2019-01-15T19:12:31.322Z,7.05
2019-01-15T19:15:19.893Z,9.28
2019-01-15T19:18:13.652Z,8.35
2019-01-15T19:21:04.228Z,9.18
2019-01-15T19:24:00.630Z,8.35
2019-01-15T19:27:03.231Z,9.13
2019-01-15T19:30:02.596Z,8.85
2019-01-15T19:33:10.779Z,7.42
2019-01-15T19:36:06.668Z,8.18
2019-01-15T19:39:11.759Z,8.55
2019-01-15T19:42:00.305Z,9.23
2019-01-15T19:44:49.106Z,8.93
2019-01-15T19:47:37.382Z,9.98
2019-01-15T19:50:27.406Z,7.95
2019-01-15T19:53:23.599Z,7.70
2019-01-15T19:56:24.135Z,9.60
2019-01-15T19:59:17.096Z,6.78
2019-01-15T20:02:07.966Z,7.97
2019-01-15T20:05:08.206Z,7.85
2019-01-15T20:07:58.656Z,7.37
2019-01-15T20:10:55.091Z,7.35
2019-01-15T20:13:50.914Z,8.90
2019-01-15T20:16:44.316Z,7.05
2019-01-15T20:19:33.273Z,9.03
2019-01-15T20:22:40.119Z,7.33
2019-01-15T20:25:32.808Z,6.15
2019-01-15T20:28:28.916Z,6.50
2019-01-15T20:31:21.300Z,8.30
2019-01-15T20:34:14.428Z,9.83
2019-01-15T20:37:04.808Z,15.60
2019-01-15T20:40:03.657Z,9.20
2019-01-15T20:43:03.514Z,7.17
2019-01-15T20:45:59.783Z,4.87
2019-01-15T20:48:51.165Z,8.20
2019-01-15T20:51:43.983Z,5.00
2019-01-15T20:54:34.137Z,5.42
2019-01-15T20:57:42.295Z,5.65
2019-01-15T21:00:47.670Z,4.70
2019-01-15T21:03:41.124Z,4.40
2019-01-15T21:06:31.322Z,5.15
2019-01-15T21:09:37.499Z,4.42
2019-01-15T21:12:30.368Z,4.72
2019-01-15T21:15:36.668Z,8.80
2019-01-15T21:18:29.272Z,4.75
2019-01-15T21:21:25.405Z,5.42
2019-01-15T21:24:21.399Z,5.30
2019-01-15T21:27:27.687Z,6.08
2019-01-15T21:30:36.205Z,6.30
2019-01-15T21:33:37.794Z,7.37
2019-01-15T21:36:27.976Z,8.83
2019-01-15T21:39:34.463Z,9.03
2019-01-15T21:42:27.429Z,9.93
2019-01-15T21:45:17.438Z,10.78
2019-01-15T21:48:07.877Z,11.48
2019-01-15T21:51:04.668Z,14.95
2019-01-15T21:54:13.186Z,11.50
2019-01-15T21:57:05.991Z,12.50
2019-01-15T22:00:02.097Z,11.95
2019-01-15T22:02:52.929Z,11.28
2019-01-15T22:05:41.044Z,11.45
2019-01-15T22:08:37.554Z,10.98
2019-01-15T22:11:28.503Z,11.80
2019-01-15T22:14:18.601Z,9.65
2019-01-15T22:17:08.774Z,10.55
2019-01-15T22:19:57.211Z,9.33
2019-01-15T22:22:55.957Z,11.50
2019-01-15T22:25:55.621Z,11.12
2019-01-15T22:28:51.280Z,12.85
2019-01-15T22:31:43.900Z,9.03
2019-01-15T22:34:35.200Z,9.10
2019-01-15T22:37:37.236Z,9.90
2019-01-15T22:40:30.672Z,9.38
2019-01-15T22:43:21.261Z,10.05
2019-01-15T22:46:25.969Z,9.83
2019-01-15T22:49:31.866Z,10.58
2019-01-15T22:52:34.237Z,10.40
2019-01-15T22:55:36.693Z,11.90
2019-01-15T22:58:26.845Z,10.20
2019-01-15T23:01:27.571Z,11.22
2019-01-15T23:04:32.610Z,12.10
2019-01-15T23:07:23.333Z,12.53
2019-01-15T23:10:13.985Z,13.20
2019-01-15T23:13:13.324Z,12.88
2019-01-15T23:16:06.279Z,13.95
2019-01-15T23:18:59.109Z,12.33
2019-01-15T23:21:52.319Z,12.18
2019-01-15T23:24:45.717Z,12.55
2019-01-15T23:27:36.094Z,11.75
2019-01-15T23:30:39.363Z,12.70
2019-01-15T23:33:35.955Z,13.43
2019-01-15T23:36:44.480Z,12.95
2019-01-15T23:39:41.787Z,13.85
2019-01-15T23:42:37.990Z,13.50
2019-01-15T23:45:26.125Z,14.20
2019-01-15T23:48:19.760Z,12.60
2019-01-15T23:51:19.234Z,12.55
2019-01-15T23:54:12.261Z,14.13
2019-01-15T23:57:10.644Z,15.63
